sensor_id;sensor_type;location;lat;lon;timestamp;pressure;altitude;pressure_sealevel;temperature;humidity
43711;BME280;29309;42.682;23.372;2023-03-03T00:00:06;95241.22;;;3.73;90.15
43711;BME280;29309;42.682;23.372;2023-03-03T00:02:31;95247.75;;;3.77;89.72
43711;BME280;29309;42.682;23.372;2023-03-03T00:04:57;95240.81;;;3.76;90.00
43711;BME280;29309;42.682;23.372;2023-03-03T00:07:22;95263.25;;;3.82;89.84
43711;BME280;29309;42.682;23.372;2023-03-03T00:09:47;95255.75;;;3.83;90.00
43711;BME280;29309;42.682;23.372;2023-03-03T00:14:44;95246.03;;;3.82;90.07
43711;BME280;29309;42.682;23.372;2023-03-03T00:17:23;95243.28;;;3.82;90.04
43711;BME280;29309;42.682;23.372;2023-03-03T00:19:49;95242.56;;;3.81;90.09
43711;BME280;29309;42.682;23.372;2023-03-03T00:24:52;95240.38;;;3.80;90.23
43711;BME280;29309;42.682;23.372;2023-03-03T00:29:52;95233.47;;;3.79;90.13
43711;BME280;29309;42.682;23.372;2023-03-03T00:37:47;95232.00;;;3.78;90.45
43711;BME280;29309;42.682;23.372;2023-03-03T00:42:39;95222.78;;;3.83;90.20
43711;BME280;29309;42.682;23.372;2023-03-03T00:45:25;95220.19;;;3.85;90.10
43711;BME280;29309;42.682;23.372;2023-03-03T00:47:51;95213.66;;;3.80;90.00
43711;BME280;29309;42.682;23.372;2023-03-03T00:53:10;95207.59;;;3.82;90.24
43711;BME280;29309;42.682;23.372;2023-03-03T00:55:37;95209.06;;;3.83;90.34
43711;BME280;29309;42.682;23.372;2023-03-03T00:58:03;95200.81;;;3.83;90.04
43711;BME280;29309;42.682;23.372;2023-03-03T01:00:29;95196.75;;;3.84;90.39
43711;BME280;29309;42.682;23.372;2023-03-03T01:02:54;95189.97;;;3.85;90.18
43711;BME280;29309;42.682;23.372;2023-03-03T01:05:19;95183.19;;;3.86;90.42
43711;BME280;29309;42.682;23.372;2023-03-03T01:07:45;95184.78;;;3.89;90.13
43711;BME280;29309;42.682;23.372;2023-03-03T01:10:10;95189.00;;;3.90;90.17
43711;BME280;29309;42.682;23.372;2023-03-03T01:12:36;95182.03;;;3.89;89.73
43711;BME280;29309;42.682;23.372;2023-03-03T01:15:03;95181.75;;;3.85;90.02
43711;BME280;29309;42.682;23.372;2023-03-03T01:17:28;95179.16;;;3.87;90.11
43711;BME280;29309;42.682;23.372;2023-03-03T01:19:54;95174.22;;;3.85;90.12
43711;BME280;29309;42.682;23.372;2023-03-03T01:22:19;95179.59;;;3.83;90.00
43711;BME280;29309;42.682;23.372;2023-03-03T01:24:44;95178.69;;;3.81;90.14
43711;BME280;29309;42.682;23.372;2023-03-03T01:27:10;95182.47;;;3.85;90.29
43711;BME280;29309;42.682;23.372;2023-03-03T01:29:35;95182.88;;;3.82;90.22
43711;BME280;29309;42.682;23.372;2023-03-03T01:32:00;95183.31;;;3.78;90.41
43711;BME280;29309;42.682;23.372;2023-03-03T01:34:26;95176.38;;;3.77;90.09
43711;BME280;29309;42.682;23.372;2023-03-03T01:36:51;95179.13;;;3.77;90.46
43711;BME280;29309;42.682;23.372;2023-03-03T01:39:16;95176.38;;;3.77;90.61
43711;BME280;29309;42.682;23.372;2023-03-03T01:41:41;95167.28;;;3.75;90.64
43711;BME280;29309;42.682;23.372;2023-03-03T01:44:10;95172.91;;;3.77;90.87
43711;BME280;29309;42.682;23.372;2023-03-03T01:49:02;95171.91;;;3.72;90.65
43711;BME280;29309;42.682;23.372;2023-03-03T01:51:32;95163.19;;;3.66;90.82
43711;BME280;29309;42.682;23.372;2023-03-03T01:54:00;95168.97;;;3.61;90.82
43711;BME280;29309;42.682;23.372;2023-03-03T01:56:26;95168.66;;;3.57;91.21
43711;BME280;29309;42.682;23.372;2023-03-03T01:58:54;95166.78;;;3.59;91.30
43711;BME280;29309;42.682;23.372;2023-03-03T02:01:23;95165.63;;;3.62;90.94
43711;BME280;29309;42.682;23.372;2023-03-03T02:03:50;95162.75;;;3.60;90.78
43711;BME280;29309;42.682;23.372;2023-03-03T02:06:18;95157.97;;;3.61;90.49
43711;BME280;29309;42.682;23.372;2023-03-03T02:08:47;95167.66;;;3.62;90.53
43711;BME280;29309;42.682;23.372;2023-03-03T02:11:15;95168.22;;;3.60;90.23
43711;BME280;29309;42.682;23.372;2023-03-03T02:13:41;95163.16;;;3.57;89.89
43711;BME280;29309;42.682;23.372;2023-03-03T02:16:06;95168.78;;;3.59;89.75
43711;BME280;29309;42.682;23.372;2023-03-03T02:18:32;95161.88;;;3.58;90.04
43711;BME280;29309;42.682;23.372;2023-03-03T02:21:10;95158.41;;;3.57;89.91
43711;BME280;29309;42.682;23.372;2023-03-03T02:26:11;95162.13;;;3.52;89.87
43711;BME280;29309;42.682;23.372;2023-03-03T02:28:37;95157.50;;;3.55;90.47
43711;BME280;29309;42.682;23.372;2023-03-03T02:31:05;95154.75;;;3.55;90.41
43711;BME280;29309;42.682;23.372;2023-03-03T02:33:30;95160.25;;;3.55;90.65
43711;BME280;29309;42.682;23.372;2023-03-03T02:35:56;95162.13;;;3.52;90.40
43711;BME280;29309;42.682;23.372;2023-03-03T02:38:26;95160.84;;;3.53;90.75
43711;BME280;29309;42.682;23.372;2023-03-03T02:43:38;95165.59;;;3.53;90.61
43711;BME280;29309;42.682;23.372;2023-03-03T02:46:05;95160.84;;;3.53;90.88
43711;BME280;29309;42.682;23.372;2023-03-03T02:48:30;95161.88;;;3.58;90.79
43711;BME280;29309;42.682;23.372;2023-03-03T02:50:56;95164.75;;;3.60;90.72
43711;BME280;29309;42.682;23.372;2023-03-03T02:53:21;95167.09;;;3.63;90.60
43711;BME280;29309;42.682;23.372;2023-03-03T02:55:46;95159.56;;;3.64;90.62
43711;BME280;29309;42.682;23.372;2023-03-03T02:58:11;95162.75;;;3.60;90.42
43711;BME280;29309;42.682;23.372;2023-03-03T03:00:37;95158.53;;;3.59;90.54
43711;BME280;29309;42.682;23.372;2023-03-03T03:03:02;95162.31;;;3.64;90.25
43711;BME280;29309;42.682;23.372;2023-03-03T03:05:27;95155.53;;;3.65;90.43
43711;BME280;29309;42.682;23.372;2023-03-03T03:07:53;95155.34;;;3.53;90.58
43711;BME280;29309;42.682;23.372;2023-03-03T03:10:18;95154.22;;;3.56;90.60
43711;BME280;29309;42.682;23.372;2023-03-03T03:12:43;95152.19;;;3.57;90.37
43711;BME280;29309;42.682;23.372;2023-03-03T03:15:08;95153.66;;;3.58;90.38
43711;BME280;29309;42.682;23.372;2023-03-03T03:17:35;95157.50;;;3.55;90.69
43711;BME280;29309;42.682;23.372;2023-03-03T03:20:01;95153.66;;;3.58;90.67
43711;BME280;29309;42.682;23.372;2023-03-03T03:22:26;95152.03;;;3.55;90.49
43711;BME280;29309;42.682;23.372;2023-03-03T03:24:51;95156.81;;;3.54;90.76
43711;BME280;29309;42.682;23.372;2023-03-03T03:27:17;95148.56;;;3.54;90.99
43711;BME280;29309;42.682;23.372;2023-03-03T03:29:43;95147.13;;;3.53;91.11
43711;BME280;29309;42.682;23.372;2023-03-03T03:32:08;95149.28;;;3.55;90.96
43711;BME280;29309;42.682;23.372;2023-03-03T03:34:34;95146.69;;;3.57;91.61
43711;BME280;29309;42.682;23.372;2023-03-03T03:36:59;95139.63;;;3.54;91.32
43711;BME280;29309;42.682;23.372;2023-03-03T03:39:24;95141.63;;;3.53;91.33
43711;BME280;29309;42.682;23.372;2023-03-03T03:41:49;95142.34;;;3.54;91.90
43711;BME280;29309;42.682;23.372;2023-03-03T03:44:15;95139.03;;;3.55;91.84
43711;BME280;29309;42.682;23.372;2023-03-03T03:46:40;95138.59;;;3.59;91.59
43711;BME280;29309;42.682;23.372;2023-03-03T03:49:05;95132.97;;;3.57;91.61
43711;BME280;29309;42.682;23.372;2023-03-03T03:51:30;95131.38;;;3.54;92.07
43711;BME280;29309;42.682;23.372;2023-03-03T03:53:57;95126.63;;;3.54;91.68
43711;BME280;29309;42.682;23.372;2023-03-03T03:56:23;95126.47;;;3.52;92.12
43711;BME280;29309;42.682;23.372;2023-03-03T03:58:48;95126.44;;;3.42;92.70
43711;BME280;29309;42.682;23.372;2023-03-03T04:01:13;95119.66;;;3.43;93.31
43711;BME280;29309;42.682;23.372;2023-03-03T04:03:39;95129.63;;;3.48;93.42
43711;BME280;29309;42.682;23.372;2023-03-03T04:06:04;95129.63;;;3.48;93.48
43711;BME280;29309;42.682;23.372;2023-03-03T04:08:29;95126.75;;;3.46;93.60
43711;BME280;29309;42.682;23.372;2023-03-03T04:10:55;95124.41;;;3.43;94.25
43711;BME280;29309;42.682;23.372;2023-03-03T04:13:20;95118.03;;;3.40;94.30
43711;BME280;29309;42.682;23.372;2023-03-03T04:15:45;95126.44;;;3.42;94.38
43711;BME280;29309;42.682;23.372;2023-03-03T04:18:11;95124.41;;;3.43;94.63
43711;BME280;29309;42.682;23.372;2023-03-03T04:20:38;95123.69;;;3.42;95.14
43711;BME280;29309;42.682;23.372;2023-03-03T04:23:03;95128.59;;;3.44;95.09
43711;BME280;29309;42.682;23.372;2023-03-03T04:25:28;95127.72;;;3.41;95.55
43711;BME280;29309;42.682;23.372;2023-03-03T04:27:54;95125.84;;;3.44;95.92
43711;BME280;29309;42.682;23.372;2023-03-03T04:30:19;95123.84;;;3.44;96.44
43711;BME280;29309;42.682;23.372;2023-03-03T04:32:45;95128.75;;;3.46;95.92
43711;BME280;29309;42.682;23.372;2023-03-03T04:35:10;95122.53;;;3.45;95.96
43711;BME280;29309;42.682;23.372;2023-03-03T04:37:35;95116.19;;;3.43;95.95
43711;BME280;29309;42.682;23.372;2023-03-03T04:40:03;95116.59;;;3.39;96.19
43711;BME280;29309;42.682;23.372;2023-03-03T04:42:28;95122.09;;;3.39;96.63
43711;BME280;29309;42.682;23.372;2023-03-03T04:44:54;95121.63;;;3.33;96.93
43711;BME280;29309;42.682;23.372;2023-03-03T04:47:19;95122.09;;;3.39;97.02
43711;BME280;29309;42.682;23.372;2023-03-03T04:49:44;95123.22;;;3.36;97.01
43711;BME280;29309;42.682;23.372;2023-03-03T04:52:10;95115.56;;;3.35;97.43
43711;BME280;29309;42.682;23.372;2023-03-03T04:54:35;95113.09;;;3.29;96.92
43711;BME280;29309;42.682;23.372;2023-03-03T04:57:00;95114.09;;;3.24;97.24
43711;BME280;29309;42.682;23.372;2023-03-03T04:59:25;95112.81;;;3.25;97.63
43711;BME280;29309;42.682;23.372;2023-03-03T05:01:51;95119.88;;;3.28;97.62
43711;BME280;29309;42.682;23.372;2023-03-03T05:04:16;95128.13;;;3.28;98.23
43711;BME280;29309;42.682;23.372;2023-03-03T05:06:41;95123.91;;;3.27;98.31
43711;BME280;29309;42.682;23.372;2023-03-03T05:09:07;95123.91;;;3.27;98.45
43711;BME280;29309;42.682;23.372;2023-03-03T05:11:33;95119.47;;;3.32;98.09
43711;BME280;29309;42.682;23.372;2023-03-03T05:13:59;95128.44;;;3.32;98.60
43711;BME280;29309;42.682;23.372;2023-03-03T05:16:24;95134.06;;;3.34;98.37
43711;BME280;29309;42.682;23.372;2023-03-03T05:18:49;95130.44;;;3.32;98.66
43711;BME280;29309;42.682;23.372;2023-03-03T05:21:14;95130.03;;;3.35;98.70
43711;BME280;29309;42.682;23.372;2023-03-03T05:23:40;95132.34;;;3.39;98.52
43711;BME280;29309;42.682;23.372;2023-03-03T05:26:05;95145.34;;;3.38;98.65
43711;BME280;29309;42.682;23.372;2023-03-03T05:28:31;95141.44;;;3.41;98.88
43711;BME280;29309;42.682;23.372;2023-03-03T05:30:56;95131.06;;;3.40;98.58
43711;BME280;29309;42.682;23.372;2023-03-03T05:33:21;95130.78;;;3.45;98.33
43711;BME280;29309;42.682;23.372;2023-03-03T05:35:46;95135.13;;;3.48;98.08
43711;BME280;29309;42.682;23.372;2023-03-03T05:38:12;95141.75;;;3.45;98.03
43711;BME280;29309;42.682;23.372;2023-03-03T05:40:37;95141.31;;;3.39;97.83
43711;BME280;29309;42.682;23.372;2023-03-03T05:43:02;95133.81;;;3.40;98.49
43711;BME280;29309;42.682;23.372;2023-03-03T05:45:28;95135.13;;;3.48;99.51
43711;BME280;29309;42.682;23.372;2023-03-03T05:47:53;95145.97;;;3.56;99.46
43711;BME280;29309;42.682;23.372;2023-03-03T05:50:19;95140.06;;;3.60;99.38
43711;BME280;29309;42.682;23.372;2023-03-03T05:52:48;95145.25;;;3.56;98.34
43711;BME280;29309;42.682;23.372;2023-03-03T05:55:14;95145.00;;;3.61;98.51
43711;BME280;29309;42.682;23.372;2023-03-03T05:57:39;95147.13;;;3.63;98.21
43711;BME280;29309;42.682;23.372;2023-03-03T06:00:05;95141.81;;;3.65;97.85
43711;BME280;29309;42.682;23.372;2023-03-03T06:02:30;95144.69;;;3.67;97.73
43711;BME280;29309;42.682;23.372;2023-03-03T06:04:56;95141.97;;;3.67;97.28
43711;BME280;29309;42.682;23.372;2023-03-03T06:07:21;95140.06;;;3.60;97.37
43711;BME280;29309;42.682;23.372;2023-03-03T06:09:46;95141.03;;;3.55;97.59
43711;BME280;29309;42.682;23.372;2023-03-03T06:12:12;95139.34;;;3.59;97.49
43711;BME280;29309;42.682;23.372;2023-03-03T06:14:37;95144.13;;;3.68;97.30
43711;BME280;29309;42.682;23.372;2023-03-03T06:17:02;95143.41;;;3.68;97.27
43711;BME280;29309;42.682;23.372;2023-03-03T06:19:28;95149.19;;;3.72;97.31
43711;BME280;29309;42.682;23.372;2023-03-03T06:21:53;95146.59;;;3.74;96.83
43711;BME280;29309;42.682;23.372;2023-03-03T06:24:18;95147.59;;;3.69;96.81
43711;BME280;29309;42.682;23.372;2023-03-03T06:26:44;95160.19;;;3.72;96.76
43711;BME280;29309;42.682;23.372;2023-03-03T06:29:09;95152.38;;;3.68;96.50
43711;BME280;29309;42.682;23.372;2023-03-03T06:31:34;95155.69;;;3.76;97.12
43711;BME280;29309;42.682;23.372;2023-03-03T06:34:00;95146.03;;;3.85;96.86
43711;BME280;29309;42.682;23.372;2023-03-03T06:36:26;95152.25;;;3.85;97.41
43711;BME280;29309;42.682;23.372;2023-03-03T06:38:51;95150.13;;;3.93;97.29
43711;BME280;29309;42.682;23.372;2023-03-03T06:41:16;95160.25;;;4.01;96.72
43711;BME280;29309;42.682;23.372;2023-03-03T06:43:42;95155.44;;;3.91;96.20
43711;BME280;29309;42.682;23.372;2023-03-03T06:46:07;95155.19;;;3.97;96.29
43711;BME280;29309;42.682;23.372;2023-03-03T06:48:32;95157.03;;;3.94;96.27
43711;BME280;29309;42.682;23.372;2023-03-03T06:50:59;95155.31;;;3.99;96.33
43711;BME280;29309;42.682;23.372;2023-03-03T06:53:25;95161.41;;;4.07;96.27
43711;BME280;29309;42.682;23.372;2023-03-03T06:55:50;95168.34;;;4.08;95.93
43711;BME280;29309;42.682;23.372;2023-03-03T06:58:17;95159.38;;;4.08;95.36
43711;BME280;29309;42.682;23.372;2023-03-03T07:00:44;95161.53;;;4.09;94.88
43711;BME280;29309;42.682;23.372;2023-03-03T07:03:11;95166.19;;;4.16;94.81
43711;BME280;29309;42.682;23.372;2023-03-03T07:05:38;95169.22;;;4.20;95.35
43711;BME280;29309;42.682;23.372;2023-03-03T07:08:12;95161.44;;;4.26;94.95
43711;BME280;29309;42.682;23.372;2023-03-03T07:10:38;95169.53;;;4.34;94.66
43711;BME280;29309;42.682;23.372;2023-03-03T07:15:42;95163.03;;;4.39;93.54
43711;BME280;29309;42.682;23.372;2023-03-03T07:18:10;95162.59;;;4.42;92.85
43711;BME280;29309;42.682;23.372;2023-03-03T07:20:45;95166.78;;;4.43;92.48
43711;BME280;29309;42.682;23.372;2023-03-03T07:23:35;95167.50;;;4.34;92.50
43711;BME280;29309;42.682;23.372;2023-03-03T07:25:56;95153.75;;;4.34;92.30
43711;BME280;29309;42.682;23.372;2023-03-03T07:28:23;95159.53;;;4.38;92.47
43711;BME280;29309;42.682;23.372;2023-03-03T07:30:49;95157.50;;;4.48;92.18
43711;BME280;29309;42.682;23.372;2023-03-03T07:35:49;95161.44;;;4.55;92.29
43711;BME280;29309;42.682;23.372;2023-03-03T07:40:56;95148.69;;;4.60;91.55
43711;BME280;29309;42.682;23.372;2023-03-03T07:43:35;95150.28;;;4.63;91.63
43711;BME280;29309;42.682;23.372;2023-03-03T07:48:35;95154.06;;;4.48;90.47
43711;BME280;29309;42.682;23.372;2023-03-03T07:51:10;95150.16;;;4.51;90.74
43711;BME280;29309;42.682;23.372;2023-03-03T07:53:37;95148.25;;;4.54;90.75
43711;BME280;29309;42.682;23.372;2023-03-03T07:56:10;95152.44;;;4.45;89.52
43711;BME280;29309;42.682;23.372;2023-03-03T07:58:37;95153.63;;;4.42;89.31
43711;BME280;29309;42.682;23.372;2023-03-03T08:03:47;95146.25;;;4.54;89.65
43711;BME280;29309;42.682;23.372;2023-03-03T08:11:33;95146.53;;;4.58;89.09
43711;BME280;29309;42.682;23.372;2023-03-03T08:13:58;95151.88;;;4.56;88.95
43711;BME280;29309;42.682;23.372;2023-03-03T08:16:28;95146.09;;;4.52;89.49
43711;BME280;29309;42.682;23.372;2023-03-03T08:18:55;95149.56;;;4.53;89.96
43711;BME280;29309;42.682;23.372;2023-03-03T08:21:25;95146.66;;;4.60;90.25
43711;BME280;29309;42.682;23.372;2023-03-03T08:23:51;95150.56;;;4.67;89.89
43711;BME280;29309;42.682;23.372;2023-03-03T08:26:21;95141.16;;;4.70;89.54
43711;BME280;29309;42.682;23.372;2023-03-03T08:28:46;95138.41;;;4.70;89.42
43711;BME280;29309;42.682;23.372;2023-03-03T08:31:12;95136.38;;;4.70;89.10
43711;BME280;29309;42.682;23.372;2023-03-03T08:33:38;95132.19;;;4.69;89.18
43711;BME280;29309;42.682;23.372;2023-03-03T08:36:04;95132.03;;;4.67;88.99
43711;BME280;29309;42.682;23.372;2023-03-03T08:38:29;95138.25;;;4.68;89.23
43711;BME280;29309;42.682;23.372;2023-03-03T08:40:54;95136.81;;;4.67;89.72
43711;BME280;29309;42.682;23.372;2023-03-03T08:43:20;95140.28;;;4.77;89.70
43711;BME280;29309;42.682;23.372;2023-03-03T08:45:49;95132.47;;;4.83;89.95
43711;BME280;29309;42.682;23.372;2023-03-03T08:48:15;95139.09;;;4.89;89.43
43711;BME280;29309;42.682;23.372;2023-03-03T08:50:41;95133.47;;;4.87;89.32
43711;BME280;29309;42.682;23.372;2023-03-03T08:53:06;95133.16;;;4.93;89.42
43711;BME280;29309;42.682;23.372;2023-03-03T08:55:32;95140.97;;;4.96;88.49
43711;BME280;29309;42.682;23.372;2023-03-03T08:57:57;95138.38;;;4.99;88.58
43711;BME280;29309;42.682;23.372;2023-03-03T09:00:22;95138.06;;;5.04;88.77
43711;BME280;29309;42.682;23.372;2023-03-03T09:02:49;95138.63;;;5.12;88.51
43711;BME280;29309;42.682;23.372;2023-03-03T09:05:16;95141.38;;;5.12;87.96
43711;BME280;29309;42.682;23.372;2023-03-03T09:07:42;95138.75;;;5.14;88.04
43711;BME280;29309;42.682;23.372;2023-03-03T09:10:08;95138.47;;;5.10;87.87
43711;BME280;29309;42.682;23.372;2023-03-03T09:12:35;95131.22;;;5.15;87.81
43711;BME280;29309;42.682;23.372;2023-03-03T09:15:12;95146.59;;;5.08;85.86
43711;BME280;29309;42.682;23.372;2023-03-03T09:17:39;95140.19;;;5.15;85.65
43711;BME280;29309;42.682;23.372;2023-03-03T09:22:42;95127.16;;;5.16;86.00
43711;BME280;29309;42.682;23.372;2023-03-03T09:27:46;95134.47;;;5.32;85.99
43711;BME280;29309;42.682;23.372;2023-03-03T09:32:37;95138.06;;;5.44;85.57
43711;BME280;29309;42.682;23.372;2023-03-03T09:37:51;95140.00;;;5.63;84.71
43711;BME280;29309;42.682;23.372;2023-03-03T09:43:02;95136.19;;;5.68;83.53
43711;BME280;29309;42.682;23.372;2023-03-03T09:45:47;95132.16;;;5.69;83.25
43711;BME280;29309;42.682;23.372;2023-03-03T09:55:58;95132.34;;;5.92;82.16
43711;BME280;29309;42.682;23.372;2023-03-03T09:58:28;95131.97;;;6.08;82.48
43711;BME280;29309;42.682;23.372;2023-03-03T10:03:45;95132.34;;;6.35;80.69
43711;BME280;29309;42.682;23.372;2023-03-03T10:06:18;95130.81;;;6.43;80.29
43711;BME280;29309;42.682;23.372;2023-03-03T10:09:08;95131.31;;;6.52;80.03
43711;BME280;29309;42.682;23.372;2023-03-03T10:11:42;95131.25;;;6.61;79.90
43711;BME280;29309;42.682;23.372;2023-03-03T10:16:54;95120.97;;;6.73;79.07
43711;BME280;29309;42.682;23.372;2023-03-03T10:19:43;95123.25;;;6.77;79.82
43711;BME280;29309;42.682;23.372;2023-03-03T10:27:22;95116.69;;;6.82;77.50
43711;BME280;29309;42.682;23.372;2023-03-03T10:35:00;95110.22;;;6.89;77.82
43711;BME280;29309;42.682;23.372;2023-03-03T10:37:31;95100.88;;;6.94;78.47
43711;BME280;29309;42.682;23.372;2023-03-03T10:47:59;95100.56;;;7.11;78.30
43711;BME280;29309;42.682;23.372;2023-03-03T10:50:32;95101.88;;;7.10;77.43
43711;BME280;29309;42.682;23.372;2023-03-03T11:00:47;95089.16;;;7.17;78.31
43711;BME280;29309;42.682;23.372;2023-03-03T11:05:50;95092.41;;;7.25;78.30
43711;BME280;29309;42.682;23.372;2023-03-03T11:08:20;95086.28;;;7.26;78.80
43711;BME280;29309;42.682;23.372;2023-03-03T11:10:50;95091.81;;;7.26;78.97
43711;BME280;29309;42.682;23.372;2023-03-03T11:20:53;95075.25;;;7.26;77.26
43711;BME280;29309;42.682;23.372;2023-03-03T11:25:48;95066.34;;;7.16;78.40
43711;BME280;29309;42.682;23.372;2023-03-03T11:28:24;95062.16;;;7.15;77.79
43711;BME280;29309;42.682;23.372;2023-03-03T11:36:05;95065.16;;;7.19;79.26
43711;BME280;29309;42.682;23.372;2023-03-03T11:38:36;95072.09;;;7.20;79.42
43711;BME280;29309;42.682;23.372;2023-03-03T11:41:11;95070.69;;;7.19;79.26
43711;BME280;29309;42.682;23.372;2023-03-03T11:43:43;95065.63;;;7.16;78.52
43711;BME280;29309;42.682;23.372;2023-03-03T11:46:15;95062.25;;;7.17;78.61
43711;BME280;29309;42.682;23.372;2023-03-03T11:51:31;95055.28;;;7.16;78.66
43711;BME280;29309;42.682;23.372;2023-03-03T11:54:00;95048.09;;;7.11;78.70
43711;BME280;29309;42.682;23.372;2023-03-03T11:56:34;95053.63;;;7.11;79.05
43711;BME280;29309;42.682;23.372;2023-03-03T11:59:08;95050.03;;;7.09;79.78
43711;BME280;29309;42.682;23.372;2023-03-03T12:01:38;95054.81;;;7.08;79.73
43711;BME280;29309;42.682;23.372;2023-03-03T12:04:19;95049.16;;;7.06;79.92
43711;BME280;29309;42.682;23.372;2023-03-03T12:09:33;95050.84;;;7.00;80.67
43711;BME280;29309;42.682;23.372;2023-03-03T12:12:20;95053.03;;;7.01;80.45
43711;BME280;29309;42.682;23.372;2023-03-03T12:28:26;95058.44;;;7.11;81.50
43711;BME280;29309;42.682;23.372;2023-03-03T12:33:26;95059.63;;;7.19;81.85
43711;BME280;29309;42.682;23.372;2023-03-03T12:38:37;95054.84;;;7.20;82.69
43711;BME280;29309;42.682;23.372;2023-03-03T12:42:09;95057.59;;;7.20;82.98
43711;BME280;29309;42.682;23.372;2023-03-03T12:49:15;95056.97;;;7.21;83.26
43711;BME280;29309;42.682;23.372;2023-03-03T12:51:43;95057.97;;;7.26;83.50
43711;BME280;29309;42.682;23.372;2023-03-03T12:54:20;95050.97;;;7.25;82.98
43711;BME280;29309;42.682;23.372;2023-03-03T12:56:57;95046.91;;;7.26;83.69
43711;BME280;29309;42.682;23.372;2023-03-03T13:12:46;95059.34;;;6.92;84.25
43711;BME280;29309;42.682;23.372;2023-03-03T13:15:17;95051.69;;;6.90;84.62
43711;BME280;29309;42.682;23.372;2023-03-03T13:17:53;95049.53;;;6.89;84.96
43711;BME280;29309;42.682;23.372;2023-03-03T13:20:26;95034.75;;;6.84;85.20
43711;BME280;29309;42.682;23.372;2023-03-03T13:23:09;95044.94;;;6.82;85.62
43711;BME280;29309;42.682;23.372;2023-03-03T13:28:31;95043.25;;;6.77;86.62
43711;BME280;29309;42.682;23.372;2023-03-03T13:33:43;95046.88;;;6.91;87.59
43711;BME280;29309;42.682;23.372;2023-03-03T13:36:14;95050.84;;;7.00;86.71
43711;BME280;29309;42.682;23.372;2023-03-03T13:38:51;95040.66;;;7.02;87.64
43711;BME280;29309;42.682;23.372;2023-03-03T13:41:28;95039.09;;;7.11;87.17
43711;BME280;29309;42.682;23.372;2023-03-03T14:04:41;95045.59;;;7.15;84.92
43711;BME280;29309;42.682;23.372;2023-03-03T14:12:26;95045.00;;;7.05;85.58
43711;BME280;29309;42.682;23.372;2023-03-03T14:20:29;95038.03;;;7.04;84.97
43711;BME280;29309;42.682;23.372;2023-03-03T14:23:00;95028.28;;;7.03;85.45
43711;BME280;29309;42.682;23.372;2023-03-03T14:25:26;95033.94;;;7.05;85.02
43711;BME280;29309;42.682;23.372;2023-03-03T14:28:08;95027.09;;;7.06;85.48
43711;BME280;29309;42.682;23.372;2023-03-03T14:30:41;95024.94;;;7.05;85.76
43711;BME280;29309;42.682;23.372;2023-03-03T14:35:33;95029.13;;;7.06;85.37
43711;BME280;29309;42.682;23.372;2023-03-03T14:38:13;95023.50;;;7.04;85.57
43711;BME280;29309;42.682;23.372;2023-03-03T14:40:39;95019.91;;;7.01;85.43
43711;BME280;29309;42.682;23.372;2023-03-03T14:43:21;95019.03;;;6.99;86.21
43711;BME280;29309;42.682;23.372;2023-03-03T14:45:47;95018.34;;;6.98;86.15
43711;BME280;29309;42.682;23.372;2023-03-03T14:50:38;95016.28;;;6.99;86.40
43711;BME280;29309;42.682;23.372;2023-03-03T14:53:09;95026.75;;;7.00;86.25
43711;BME280;29309;42.682;23.372;2023-03-03T14:55:36;95023.97;;;7.00;86.11
43711;BME280;29309;42.682;23.372;2023-03-03T14:58:03;95030.94;;;7.01;86.17
43711;BME280;29309;42.682;23.372;2023-03-03T15:00:32;95023.50;;;7.04;86.14
43711;BME280;29309;42.682;23.372;2023-03-03T15:03:02;95022.78;;;7.03;85.81
43711;BME280;29309;42.682;23.372;2023-03-03T15:05:33;95017.25;;;7.03;85.59
43711;BME280;29309;42.682;23.372;2023-03-03T15:10:31;95013.19;;;7.04;85.89
43711;BME280;29309;42.682;23.372;2023-03-03T15:12:57;95020.00;;;7.03;85.66
43711;BME280;29309;42.682;23.372;2023-03-03T15:15:24;95024.22;;;7.04;85.16
43711;BME280;29309;42.682;23.372;2023-03-03T15:23:13;95027.72;;;7.05;86.38
43711;BME280;29309;42.682;23.372;2023-03-03T15:25:43;95022.66;;;7.01;86.28
43711;BME280;29309;42.682;23.372;2023-03-03T15:28:30;95025.44;;;7.01;86.45
43711;BME280;29309;42.682;23.372;2023-03-03T15:33:45;95026.63;;;6.98;85.52
43711;BME280;29309;42.682;23.372;2023-03-03T15:36:24;95029.38;;;6.98;85.96
43711;BME280;29309;42.682;23.372;2023-03-03T15:39:02;95032.72;;;6.97;85.33
43711;BME280;29309;42.682;23.372;2023-03-03T15:47:13;95025.53;;;6.91;85.58
43711;BME280;29309;42.682;23.372;2023-03-03T16:01:33;95035.47;;;6.85;85.36
43711;BME280;29309;42.682;23.372;2023-03-03T16:03:59;95037.41;;;6.82;85.32
43711;BME280;29309;42.682;23.372;2023-03-03T16:09:16;95035.22;;;6.81;86.14
43711;BME280;29309;42.682;23.372;2023-03-03T16:11:48;95044.69;;;6.78;85.96
43711;BME280;29309;42.682;23.372;2023-03-03T16:14:33;95045.91;;;6.75;85.69
43711;BME280;29309;42.682;23.372;2023-03-03T16:17:17;95055.47;;;6.74;86.06
43711;BME280;29309;42.682;23.372;2023-03-03T16:27:33;95066.41;;;6.72;86.49
43711;BME280;29309;42.682;23.372;2023-03-03T16:43:14;95067.47;;;6.67;87.05
43711;BME280;29309;42.682;23.372;2023-03-03T16:45:42;95077.03;;;6.66;86.88
43711;BME280;29309;42.682;23.372;2023-03-03T16:50:43;95074.91;;;6.64;87.37
43711;BME280;29309;42.682;23.372;2023-03-03T16:55:43;95090.00;;;6.63;87.35
43711;BME280;29309;42.682;23.372;2023-03-03T17:01:18;95090.72;;;6.64;88.32
43711;BME280;29309;42.682;23.372;2023-03-03T17:05:56;95094.78;;;6.63;87.94
43711;BME280;29309;42.682;23.372;2023-03-03T17:08:34;95099.59;;;6.62;88.89
43711;BME280;29309;42.682;23.372;2023-03-03T17:16:24;95098.75;;;6.60;88.22
43711;BME280;29309;42.682;23.372;2023-03-03T17:26:59;95103.28;;;6.55;88.50
43711;BME280;29309;42.682;23.372;2023-03-03T17:39:53;95116.97;;;6.32;88.70
43711;BME280;29309;42.682;23.372;2023-03-03T17:42:23;95116.25;;;6.31;88.85
43711;BME280;29309;42.682;23.372;2023-03-03T17:45:03;95117.09;;;6.34;88.72
43711;BME280;29309;42.682;23.372;2023-03-03T18:00:50;95141.97;;;6.46;89.12
43711;BME280;29309;42.682;23.372;2023-03-03T18:11:07;95143.69;;;6.51;89.20